Time;durP1;ratioP1;P1;durP2;ratioP2;P2;SDS_P1;SDS_P2;PMS_P1;PMS_P2;Temp;Humidity;BMP_temperature;BMP_pressure;BME280_temperature;BME280_humidity;BME280_pressure;Samples;Min_cycle;Max_cycle;Signal;HPM_P1;HPM_P2
2023/07/14 00:00:35;;;;;;;14.07;12.13;;;15.40;99.90;;;;;;4845712;28;90286;-36
2023/07/14 00:03:02;;;;;;;12.75;11.00;;;15.40;99.90;;;;;;4852125;28;89964;-38
2023/07/14 00:05:32;;;;;;;16.25;11.32;;;15.40;99.90;;;;;;4847359;28;89524;-37
2023/07/14 00:07:58;;;;;;;11.57;10.38;;;15.40;99.90;;;;;;4862352;28;91216;-33
2023/07/14 00:10:33;;;;;;;12.13;10.45;;;15.40;99.90;;;;;;4857218;28;90135;-40
2023/07/14 00:13:07;;;;;;;12.88;11.13;;;15.40;99.90;;;;;;4843180;28;90088;-38
2023/07/14 00:15:36;;;;;;;12.68;11.35;;;15.40;99.90;;;;;;4851087;28;89503;-37
2023/07/14 00:18:19;;;;;;;14.00;12.05;;;15.40;99.90;;;;;;4861973;28;90050;-35
2023/07/14 00:20:44;;;;;;;11.98;10.77;;;15.40;99.90;;;;;;4861560;28;90207;-33
2023/07/14 00:23:14;;;;;;;13.10;11.70;;;15.30;99.90;;;;;;4861849;28;88606;-36
2023/07/14 00:25:41;;;;;;;17.30;12.88;;;15.30;99.90;;;;;;4862574;28;89769;-35
2023/07/14 00:28:18;;;;;;;12.00;10.75;;;15.30;99.90;;;;;;4844986;28;90739;-37
2023/07/14 00:30:45;;;;;;;15.23;11.30;;;15.30;99.90;;;;;;4847309;28;90011;-41
2023/07/14 00:33:18;;;;;;;11.38;10.20;;;15.20;99.90;;;;;;4852090;28;89167;-40
2023/07/14 00:35:45;;;;;;;14.50;12.45;;;15.30;99.90;;;;;;4848033;28;89740;-41
2023/07/14 00:38:11;;;;;;;12.95;11.30;;;15.20;99.90;;;;;;4851134;28;90563;-40
2023/07/14 00:40:47;;;;;;;13.88;12.50;;;15.20;99.90;;;;;;4848549;28;90943;-39
2023/07/14 00:43:19;;;;;;;12.55;11.35;;;15.10;99.90;;;;;;4853381;28;90318;-36
2023/07/14 00:45:48;;;;;;;16.52;12.13;;;15.10;99.90;;;;;;4854334;28;90149;-34
2023/07/14 00:48:20;;;;;;;13.93;12.48;;;15.10;99.90;;;;;;4856146;28;92261;-35
2023/07/14 00:51:02;;;;;;;18.40;13.23;;;15.10;99.90;;;;;;4850946;28;90449;-38
2023/07/14 00:53:35;;;;;;;14.57;12.95;;;15.10;99.90;;;;;;4847698;28;89700;-35
2023/07/14 00:56:09;;;;;;;12.77;11.10;;;15.00;99.90;;;;;;4849745;28;90012;-33
2023/07/14 00:58:36;;;;;;;16.10;13.00;;;15.10;99.90;;;;;;4858554;28;90307;-37
2023/07/14 01:01:25;;;;;;;13.95;12.55;;;15.00;99.90;;;;;;4853381;28;91524;-34
2023/07/14 01:04:00;;;;;;;14.50;13.00;;;15.00;99.90;;;;;;4844889;28;91019;-33
2023/07/14 01:06:36;;;;;;;15.60;11.70;;;14.90;99.90;;;;;;4854474;28;88218;-34
2023/07/14 01:09:10;;;;;;;17.05;12.75;;;14.90;99.90;;;;;;4861810;28;91520;-35
2023/07/14 01:11:39;;;;;;;15.70;14.10;;;14.90;99.90;;;;;;4861406;28;89037;-40
2023/07/14 01:14:09;;;;;;;14.00;12.23;;;14.90;99.90;;;;;;4861104;28;89676;-37
2023/07/14 01:16:38;;;;;;;14.93;13.32;;;15.00;99.90;;;;;;4864076;28;89152;-32
2023/07/14 01:19:14;;;;;;;14.32;11.75;;;14.90;99.90;;;;;;4864734;28;92562;-39
2023/07/14 01:21:43;;;;;;;14.88;11.23;;;14.90;99.90;;;;;;4864281;28;89524;-34
2023/07/14 01:24:21;;;;;;;15.35;11.93;;;15.00;99.90;;;;;;4864337;28;89922;-40
2023/07/14 01:26:57;;;;;;;12.82;10.85;;;15.00;99.90;;;;;;4853129;28;90384;-42
2023/07/14 01:29:24;;;;;;;13.43;11.90;;;15.00;99.90;;;;;;4863806;28;90391;-32
2023/07/14 01:31:51;;;;;;;12.90;11.50;;;14.90;99.90;;;;;;4848163;28;90249;-31
2023/07/14 01:34:17;;;;;;;14.15;12.60;;;14.90;99.90;;;;;;4845793;28;89696;-42
2023/07/14 01:36:48;;;;;;;15.52;12.32;;;14.90;99.90;;;;;;4846755;28;88744;-33
2023/07/14 01:39:14;;;;;;;14.80;11.80;;;14.90;99.90;;;;;;4846242;28;90308;-38
2023/07/14 01:41:41;;;;;;;15.52;12.82;;;14.90;99.90;;;;;;4845821;28;90617;-36
2023/07/14 01:44:18;;;;;;;14.30;11.50;;;14.90;99.90;;;;;;4845886;28;88826;-34
2023/07/14 01:46:46;;;;;;;17.50;10.20;;;14.90;99.90;;;;;;4852970;28;89090;-38
2023/07/14 01:49:27;;;;;;;14.07;11.23;;;14.90;99.90;;;;;;4850630;28;89912;-35
2023/07/14 01:51:56;;;;;;;16.30;11.85;;;14.80;99.90;;;;;;4854805;28;91722;-37
2023/07/14 01:54:30;;;;;;;14.13;12.70;;;14.80;99.90;;;;;;4858062;28;90579;-41
2023/07/14 01:56:59;;;;;;;13.23;11.60;;;14.80;99.90;;;;;;4845893;28;88627;-36
2023/07/14 01:59:30;;;;;;;15.68;10.80;;;14.80;99.90;;;;;;4846613;28;90344;-35
2023/07/14 02:01:59;;;;;;;16.13;11.55;;;14.80;99.90;;;;;;4849353;28;89808;-38
2023/07/14 02:04:29;;;;;;;12.57;10.50;;;14.80;99.90;;;;;;4848662;28;89503;-35
2023/07/14 02:06:56;;;;;;;14.75;11.82;;;14.80;99.90;;;;;;4850558;28;89783;-34
2023/07/14 02:09:24;;;;;;;16.40;11.02;;;14.80;99.90;;;;;;4847937;28;89819;-31
2023/07/14 02:11:57;;;;;;;14.25;11.73;;;14.80;99.90;;;;;;4851164;28;90168;-35
2023/07/14 02:14:27;;;;;;;12.65;11.27;;;14.70;99.90;;;;;;4855374;28;89484;-33
2023/07/14 02:17:04;;;;;;;14.20;10.75;;;14.70;99.90;;;;;;4859605;28;89292;-35
2023/07/14 02:19:31;;;;;;;18.43;13.80;;;14.60;99.90;;;;;;4847843;28;90499;-33
2023/07/14 02:21:58;;;;;;;14.25;12.75;;;14.70;99.90;;;;;;4854567;28;90298;-40
2023/07/14 02:24:27;;;;;;;17.13;13.30;;;14.60;99.90;;;;;;4863898;28;89227;-33
2023/07/14 02:26:59;;;;;;;14.23;11.95;;;14.60;99.90;;;;;;4849517;28;88319;-33
2023/07/14 02:29:25;;;;;;;16.45;12.00;;;14.60;99.90;;;;;;4857712;28;90919;-40
2023/07/14 02:31:55;;;;;;;15.13;12.00;;;14.60;99.90;;;;;;4847180;28;89635;-34
2023/07/14 02:34:22;;;;;;;16.15;12.75;;;14.50;99.90;;;;;;4855187;28;90552;-37
2023/07/14 02:37:02;;;;;;;13.65;12.27;;;14.50;99.90;;;;;;4863201;28;89786;-32
2023/07/14 02:39:36;;;;;;;13.77;12.38;;;14.50;99.90;;;;;;4862596;28;90985;-39
2023/07/14 02:42:03;;;;;;;18.58;12.30;;;14.50;99.90;;;;;;4852708;28;89729;-34
2023/07/14 02:44:36;;;;;;;14.30;12.45;;;14.50;99.90;;;;;;4862078;28;92659;-32
2023/07/14 02:47:13;;;;;;;17.27;13.10;;;14.50;99.90;;;;;;4855225;28;87539;-33
2023/07/14 02:49:40;;;;;;;14.93;11.75;;;14.60;99.90;;;;;;4849023;28;90211;-31
2023/07/14 02:52:05;;;;;;;14.63;13.20;;;14.50;99.90;;;;;;4864096;28;89616;-33
2023/07/14 02:54:31;;;;;;;33.85;13.57;;;14.50;99.90;;;;;;4863532;28;89813;-40
2023/07/14 02:56:57;;;;;;;13.38;11.65;;;14.50;99.90;;;;;;4852703;28;88784;-32
2023/07/14 02:59:23;;;;;;;12.90;11.68;;;14.40;99.90;;;;;;4860766;28;90272;-34
2023/07/14 03:01:48;;;;;;;18.60;12.85;;;14.50;99.90;;;;;;4860302;28;90101;-39
2023/07/14 03:04:14;;;;;;;13.48;12.07;;;14.40;99.90;;;;;;4862815;28;90454;-33
2023/07/14 03:06:40;;;;;;;12.50;11.27;;;14.40;99.90;;;;;;4863522;28;90509;-36
2023/07/14 03:09:06;;;;;;;16.25;13.00;;;14.30;99.90;;;;;;4862795;28;89724;-30
2023/07/14 03:11:31;;;;;;;12.95;11.48;;;14.30;99.90;;;;;;4863736;28;89664;-39
2023/07/14 03:13:57;;;;;;;14.90;13.23;;;14.30;99.90;;;;;;4862599;28;89581;-31
2023/07/14 03:16:23;;;;;;;15.63;13.25;;;14.30;99.90;;;;;;4863232;28;89334;-32
2023/07/14 03:18:48;;;;;;;17.45;11.77;;;14.30;99.90;;;;;;4863223;28;90605;-37
2023/07/14 03:21:14;;;;;;;13.52;12.13;;;14.30;99.90;;;;;;4862388;28;89749;-38
2023/07/14 03:23:40;;;;;;;14.55;12.68;;;14.30;99.90;;;;;;4863057;28;89487;-37
2023/07/14 03:26:08;;;;;;;14.38;12.52;;;14.30;99.90;;;;;;4863532;28;88400;-31
2023/07/14 03:28:35;;;;;;;14.75;13.23;;;14.30;99.90;;;;;;4863305;28;89087;-33
2023/07/14 03:31:04;;;;;;;13.55;11.05;;;14.30;99.90;;;;;;4861759;28;89484;-40
2023/07/14 03:33:32;;;;;;;14.15;11.73;;;14.30;99.90;;;;;;4861950;28;90472;-33
2023/07/14 03:36:08;;;;;;;15.90;11.90;;;14.30;99.90;;;;;;4863384;28;88797;-36
2023/07/14 03:38:39;;;;;;;13.63;12.07;;;14.20;99.90;;;;;;4862359;28;90661;-33
2023/07/14 03:41:04;;;;;;;12.88;11.65;;;14.30;99.90;;;;;;4863364;28;89974;-39
2023/07/14 03:43:30;;;;;;;13.80;11.85;;;14.20;99.90;;;;;;4861791;28;89939;-37
2023/07/14 03:45:59;;;;;;;13.50;12.20;;;14.20;99.90;;;;;;4863230;28;87774;-37
2023/07/14 03:48:25;;;;;;;12.43;10.45;;;14.30;99.90;;;;;;4862278;28;91172;-32
2023/07/14 03:50:50;;;;;;;15.02;11.75;;;14.30;99.90;;;;;;4862641;28;89693;-32
2023/07/14 03:53:16;;;;;;;13.73;11.85;;;14.40;99.90;;;;;;4862564;28;89950;-41
2023/07/14 03:55:43;;;;;;;12.85;11.48;;;14.30;99.90;;;;;;4862278;28;90441;-36
2023/07/14 03:58:09;;;;;;;13.20;11.77;;;14.30;99.90;;;;;;4862000;28;90485;-33
2023/07/14 04:00:34;;;;;;;14.00;12.15;;;14.30;99.90;;;;;;4854107;28;88668;-34
2023/07/14 04:03:00;;;;;;;13.00;11.70;;;14.30;99.90;;;;;;4862080;28;89596;-38
2023/07/14 04:05:26;;;;;;;14.32;12.30;;;14.30;99.90;;;;;;4846181;28;89051;-35
2023/07/14 04:07:52;;;;;;;12.00;10.82;;;14.30;99.90;;;;;;4844702;28;90646;-31
2023/07/14 04:10:18;;;;;;;22.17;12.68;;;14.40;99.90;;;;;;4848134;28;89611;-33
2023/07/14 04:12:48;;;;;;;12.70;11.43;;;14.40;99.90;;;;;;4852123;28;89958;-34
2023/07/14 04:15:14;;;;;;;12.07;10.60;;;14.40;99.90;;;;;;4843707;28;88168;-35
2023/07/14 04:17:40;;;;;;;13.65;12.13;;;14.40;99.90;;;;;;4843554;28;91777;-33
2023/07/14 04:20:06;;;;;;;15.02;10.73;;;14.40;99.90;;;;;;4844172;28;91401;-41
2023/07/14 04:22:33;;;;;;;16.98;13.68;;;14.50;99.90;;;;;;4844710;28;90084;-36
2023/07/14 04:24:59;;;;;;;14.05;11.20;;;14.50;99.90;;;;;;4848872;28;89389;-39
2023/07/14 04:27:25;;;;;;;11.05;9.95;;;14.50;99.90;;;;;;4850323;28;90367;-36
2023/07/14 04:29:51;;;;;;;15.30;11.57;;;14.50;99.90;;;;;;4857107;28;90365;-34
2023/07/14 04:32:17;;;;;;;12.25;11.07;;;14.50;99.90;;;;;;4843802;28;91034;-34
2023/07/14 04:34:43;;;;;;;12.13;10.75;;;14.50;99.90;;;;;;4844981;28;89361;-36
2023/07/14 04:37:09;;;;;;;17.15;9.98;;;14.50;99.90;;;;;;4849947;28;90728;-37
2023/07/14 04:39:35;;;;;;;14.40;11.85;;;14.60;99.90;;;;;;4860785;28;89862;-39
2023/07/14 04:42:01;;;;;;;13.77;11.65;;;14.60;99.90;;;;;;4861941;28;89712;-35
2023/07/14 04:44:27;;;;;;;12.43;11.30;;;14.70;99.90;;;;;;4861371;28;88978;-35
2023/07/14 04:46:52;;;;;;;13.43;11.52;;;14.80;99.90;;;;;;4861832;28;90022;-39
2023/07/14 04:49:18;;;;;;;14.38;12.70;;;14.90;99.90;;;;;;4860201;28;89811;-35
2023/07/14 04:51:44;;;;;;;16.33;13.57;;;14.90;99.90;;;;;;4861452;28;89812;-40
2023/07/14 04:54:11;;;;;;;19.40;12.95;;;15.00;99.90;;;;;;4860808;28;88247;-34
2023/07/14 04:56:39;;;;;;;17.95;12.15;;;15.20;99.90;;;;;;4860595;28;90528;-37
2023/07/14 04:59:06;;;;;;;14.85;12.77;;;15.30;99.90;;;;;;4860097;28;90132;-32
2023/07/14 05:01:32;;;;;;;18.13;12.65;;;15.50;99.90;;;;;;4861991;28;90035;-41
2023/07/14 05:03:58;;;;;;;16.10;14.32;;;15.60;99.90;;;;;;4856687;28;89543;-35
2023/07/14 05:06:24;;;;;;;17.65;11.93;;;15.80;99.90;;;;;;4853525;28;89298;-35
2023/07/14 05:08:49;;;;;;;17.48;12.90;;;16.00;99.90;;;;;;4852121;28;88908;-34
2023/07/14 05:11:15;;;;;;;18.02;12.60;;;16.00;99.90;;;;;;4852272;28;91135;-35
2023/07/14 05:13:41;;;;;;;16.65;12.70;;;16.10;99.90;;;;;;4850917;28;88309;-37
2023/07/14 05:16:07;;;;;;;15.07;12.63;;;16.20;99.90;;;;;;4853617;28;91267;-33
2023/07/14 05:18:33;;;;;;;14.98;13.10;;;16.30;99.90;;;;;;4852421;28;90725;-34
2023/07/14 05:21:01;;;;;;;17.02;13.00;;;16.30;99.90;;;;;;4850362;28;90679;-32
2023/07/14 05:23:27;;;;;;;13.73;12.33;;;16.40;99.90;;;;;;4853118;28;89379;-35
2023/07/14 05:25:54;;;;;;;14.98;13.13;;;16.40;99.90;;;;;;4852862;28;90285;-32
2023/07/14 05:28:20;;;;;;;17.42;12.13;;;16.40;99.90;;;;;;4850029;28;89889;-43
2023/07/14 05:30:45;;;;;;;14.93;12.40;;;16.50;99.90;;;;;;4858913;28;89851;-35
2023/07/14 05:33:12;;;;;;;14.45;12.30;;;16.60;99.90;;;;;;4856464;28;89680;-38
2023/07/14 05:35:38;;;;;;;14.23;12.82;;;16.60;99.90;;;;;;4840951;28;90319;-34
2023/07/14 05:38:05;;;;;;;17.75;12.65;;;16.60;99.90;;;;;;4852806;28;91286;-39
2023/07/14 05:40:31;;;;;;;16.92;13.35;;;16.60;99.90;;;;;;4849879;28;89840;-41
2023/07/14 05:42:58;;;;;;;13.70;12.27;;;16.50;99.90;;;;;;4843098;28;89737;-33
2023/07/14 05:45:24;;;;;;;16.35;11.32;;;16.50;99.90;;;;;;4854013;28;89967;-36
2023/07/14 05:47:50;;;;;;;19.48;12.60;;;16.60;99.90;;;;;;4855768;28;89909;-42
2023/07/14 05:50:16;;;;;;;11.98;10.70;;;16.50;99.90;;;;;;4852823;28;89206;-34
2023/07/14 05:52:43;;;;;;;14.20;12.75;;;16.50;99.90;;;;;;4855735;28;88241;-40
2023/07/14 05:55:10;;;;;;;12.20;10.93;;;16.50;99.90;;;;;;4853424;28;90091;-37
2023/07/14 05:57:36;;;;;;;14.68;11.85;;;16.60;99.90;;;;;;4859277;28;90544;-36
2023/07/14 06:00:06;;;;;;;13.38;11.50;;;16.60;99.90;;;;;;4851328;28;90104;-33
2023/07/14 06:02:31;;;;;;;15.32;11.18;;;16.60;99.90;;;;;;4856472;28;89066;-34
2023/07/14 06:05:00;;;;;;;14.60;10.65;;;16.60;99.90;;;;;;4854164;28;91419;-34
2023/07/14 06:07:25;;;;;;;12.45;10.20;;;16.70;99.90;;;;;;4851577;28;91069;-33
2023/07/14 06:09:51;;;;;;;14.40;11.13;;;16.80;99.90;;;;;;4852610;28;88748;-34
2023/07/14 06:12:17;;;;;;;12.90;11.60;;;16.80;99.90;;;;;;4853262;28;89072;-39
2023/07/14 06:14:43;;;;;;;13.73;11.95;;;16.80;99.90;;;;;;4851591;28;90297;-38
2023/07/14 06:17:10;;;;;;;12.52;10.23;;;16.90;99.90;;;;;;4850879;28;89998;-39
2023/07/14 06:19:39;;;;;;;11.65;10.38;;;17.00;99.90;;;;;;4849813;28;89819;-34
2023/07/14 06:22:06;;;;;;;16.48;11.48;;;17.00;99.90;;;;;;4852689;28;88583;-34
2023/07/14 06:24:35;;;;;;;15.35;11.75;;;17.00;99.90;;;;;;4854135;28;90064;-34
2023/07/14 06:27:02;;;;;;;14.85;11.40;;;17.10;99.90;;;;;;4860629;28;92276;-38
2023/07/14 06:29:28;;;;;;;12.87;10.77;;;17.10;99.90;;;;;;4855093;28;89950;-32
2023/07/14 06:31:53;;;;;;;17.83;11.00;;;17.10;99.90;;;;;;4857828;28;89660;-36
2023/07/14 06:34:19;;;;;;;11.40;10.30;;;17.20;99.90;;;;;;4842196;28;91293;-33
2023/07/14 06:36:45;;;;;;;12.57;11.35;;;17.30;99.90;;;;;;4849372;28;90301;-39
2023/07/14 06:39:12;;;;;;;10.25;9.07;;;17.60;99.90;;;;;;4857936;28;90141;-35
2023/07/14 06:41:37;;;;;;;10.55;9.05;;;17.60;99.90;;;;;;4853165;28;89252;-35
2023/07/14 06:44:03;;;;;;;10.55;8.93;;;17.80;99.90;;;;;;4857644;28;90089;-37
2023/07/14 06:46:31;;;;;;;11.98;9.05;;;18.30;99.90;;;;;;4856578;28;91526;-35
2023/07/14 06:48:57;;;;;;;9.57;8.00;;;18.50;99.90;;;;;;4856734;28;91297;-35
2023/07/14 06:51:24;;;;;;;9.00;8.00;;;18.90;99.90;;;;;;4852511;28;88128;-33
2023/07/14 06:53:50;;;;;;;8.38;6.75;;;19.30;99.90;;;;;;4862116;28;90276;-33
2023/07/14 06:56:16;;;;;;;8.68;6.55;;;19.60;99.90;;;;;;4851817;28;90029;-37
2023/07/14 06:58:43;;;;;;;7.03;4.80;;;19.90;99.90;;;;;;4858543;28;88680;-36
2023/07/14 07:01:09;;;;;;;9.35;6.15;;;20.20;99.90;;;;;;4856859;28;89750;-40
2023/07/14 07:03:35;;;;;;;9.02;4.80;;;20.50;99.90;;;;;;4860868;28;90148;-33
2023/07/14 07:06:01;;;;;;;8.20;5.13;;;20.60;99.90;;;;;;4863727;28;89618;-37
2023/07/14 07:08:26;;;;;;;6.10;4.85;;;20.80;99.90;;;;;;4863681;28;88613;-35
2023/07/14 07:10:53;;;;;;;4.63;4.22;;;21.20;99.90;;;;;;4863337;28;90171;-36
2023/07/14 07:13:19;;;;;;;4.55;3.63;;;21.50;99.90;;;;;;4863182;28;89902;-34
2023/07/14 07:15:44;;;;;;;6.47;4.38;;;21.90;99.90;;;;;;4863252;28;89871;-35
2023/07/14 07:18:10;;;;;;;4.13;3.70;;;21.90;99.90;;;;;;4861265;28;90280;-34
2023/07/14 07:20:38;;;;;;;5.80;4.93;;;22.20;99.90;;;;;;4863479;28;89742;-38
2023/07/14 07:23:04;;;;;;;6.93;4.78;;;22.40;99.90;;;;;;4862813;28;90441;-38
2023/07/14 07:25:29;;;;;;;5.97;4.35;;;22.50;99.90;;;;;;4863140;28;90055;-38
2023/07/14 07:27:55;;;;;;;5.22;4.57;;;22.60;99.90;;;;;;4862901;28;89907;-37
2023/07/14 07:30:21;;;;;;;8.73;4.78;;;22.80;99.90;;;;;;4863467;28;88497;-36
2023/07/14 07:32:47;;;;;;;4.70;4.25;;;22.70;99.90;;;;;;4863781;28;90689;-36
2023/07/14 07:35:13;;;;;;;8.95;4.68;;;23.10;99.90;;;;;;4862000;28;90923;-44
2023/07/14 07:37:39;;;;;;;10.20;5.88;;;22.90;99.90;;;;;;4861861;28;89991;-39
2023/07/14 07:40:06;;;;;;;7.10;5.50;;;22.70;99.90;;;;;;4862277;28;88622;-39
2023/07/14 07:42:34;;;;;;;6.07;4.82;;;22.70;99.90;;;;;;4863323;28;90259;-41
2023/07/14 07:45:00;;;;;;;5.72;5.15;;;22.70;99.90;;;;;;4863855;28;90159;-34
2023/07/14 07:47:26;;;;;;;5.75;5.00;;;22.80;99.90;;;;;;4862957;28;90113;-33
2023/07/14 07:49:52;;;;;;;6.18;5.43;;;23.10;99.90;;;;;;4862787;28;89388;-36
2023/07/14 07:52:18;;;;;;;8.60;6.45;;;23.00;99.90;;;;;;4862929;28;90678;-34
2023/07/14 07:54:44;;;;;;;8.68;6.07;;;22.90;99.90;;;;;;4862423;28;89931;-39
2023/07/14 07:57:10;;;;;;;7.88;6.20;;;23.40;99.90;;;;;;4862729;28;90293;-42
2023/07/14 07:59:37;;;;;;;5.78;5.25;;;23.60;99.90;;;;;;4862366;28;89670;-35
2023/07/14 08:02:03;;;;;;;17.27;8.02;;;23.50;99.90;;;;;;4894822;23;89104;-41
2023/07/14 08:04:28;;;;;;;12.65;6.00;;;23.20;99.90;;;;;;4881860;28;89898;-34
2023/07/14 08:06:54;;;;;;;7.53;6.65;;;23.30;99.90;;;;;;4878680;28;89915;-33
2023/07/14 08:09:21;;;;;;;6.17;5.57;;;23.30;99.90;;;;;;4862853;28;89694;-33
2023/07/14 08:11:48;;;;;;;7.53;5.35;;;23.40;99.90;;;;;;4875012;28;91129;-34
2023/07/14 08:14:19;;;;;;;7.10;5.75;;;23.30;99.90;;;;;;4872616;28;92464;-38
2023/07/14 08:16:45;;;;;;;6.05;5.40;;;23.00;99.90;;;;;;4865885;28;89970;-35
2023/07/14 08:19:13;;;;;;;8.73;5.72;;;22.40;99.90;;;;;;4863598;28;88210;-32
2023/07/14 08:21:39;;;;;;;9.15;5.45;;;22.40;99.90;;;;;;4876034;28;89673;-37
2023/07/14 08:24:06;;;;;;;5.28;4.88;;;22.70;99.90;;;;;;4873171;28;90225;-40
2023/07/14 08:26:33;;;;;;;5.00;4.38;;;22.50;99.90;;;;;;4869590;28;90890;-38
2023/07/14 08:28:59;;;;;;;7.30;6.35;;;22.40;99.90;;;;;;4876802;28;89276;-38
2023/07/14 08:31:25;;;;;;;8.23;5.72;;;22.30;99.90;;;;;;4881074;28;89890;-38
2023/07/14 08:33:51;;;;;;;8.07;5.30;;;22.50;99.90;;;;;;4880592;28;88898;-36
2023/07/14 08:36:17;;;;;;;5.95;5.35;;;22.70;99.90;;;;;;4880994;28;89669;-39
2023/07/14 08:38:43;;;;;;;5.43;4.93;;;22.80;99.90;;;;;;4881842;28;88179;-33
2023/07/14 08:41:30;;;;;;;13.82;7.45;;;22.80;99.90;;;;;;4880146;28;90124;-37
2023/07/14 08:44:17;;;;;;;5.33;4.83;;;22.40;99.90;;;;;;4881135;28;90336;-34
2023/07/14 08:47:13;;;;;;;9.30;5.20;;;22.60;99.90;;;;;;4869220;28;90331;-45
2023/07/14 08:50:06;;;;;;;7.93;5.90;;;22.40;99.90;;;;;;4881205;28;90041;-40
2023/07/14 08:52:34;;;;;;;5.97;4.28;;;22.10;99.90;;;;;;4878327;28;90675;-33
2023/07/14 08:55:03;;;;;;;;;;;21.80;99.90;;;;;;4881180;28;89661;-39
2023/07/14 08:57:30;;;;;;;10.68;5.07;;;21.70;99.90;;;;;;4881883;28;89454;-39
2023/07/14 09:00:00;;;;;;;5.57;4.65;;;21.60;99.90;;;;;;4881964;28;87936;-36
2023/07/14 09:02:35;;;;;;;6.97;4.93;;;22.00;99.90;;;;;;4878683;28;90654;-35
2023/07/14 09:05:44;;;;;;;6.55;4.22;;;22.20;99.90;;;;;;4877773;28;90898;-36
2023/07/14 09:08:12;;;;;;;7.22;4.05;;;21.90;99.90;;;;;;4831843;29;90064;-34
2023/07/14 09:10:44;;;;;;;4.40;3.72;;;21.60;99.90;;;;;;4836966;29;89295;-33
2023/07/14 09:13:20;;;;;;;6.53;4.10;;;21.90;99.90;;;;;;4852066;28;90824;-33
2023/07/14 09:15:46;;;;;;;6.97;3.50;;;22.20;99.90;;;;;;4876854;28;92261;-33
2023/07/14 09:18:53;;;;;;;8.07;4.28;;;22.50;99.90;;;;;;4874153;28;90473;-36
2023/07/14 09:21:36;;;;;;;3.83;3.53;;;22.60;99.90;;;;;;4878171;28;90220;-34
2023/07/14 09:24:08;;;;;;;4.32;3.67;;;22.40;99.90;;;;;;4879711;28;90549;-38
2023/07/14 09:26:42;;;;;;;4.20;3.40;;;22.30;99.90;;;;;;4875663;28;89557;-33
2023/07/14 09:29:13;;;;;;;3.58;3.22;;;22.40;99.90;;;;;;4877309;28;89428;-42
2023/07/14 09:31:44;;;;;;;5.22;4.00;;;22.60;99.90;;;;;;4871554;28;88695;-34
2023/07/14 09:34:40;;;;;;;7.55;3.53;;;23.00;99.90;;;;;;4878895;28;90135;-39
2023/07/14 09:37:18;;;;;;;4.65;4.00;;;23.20;99.90;;;;;;4871443;28;88307;-33
2023/07/14 09:39:46;;;;;;;4.63;3.75;;;23.10;99.90;;;;;;4875094;28;90048;-36
2023/07/14 09:42:27;;;;;;;;;;;23.00;99.90;;;;;;4882135;28;90809;-41
2023/07/14 09:45:04;;;;;;;5.55;3.42;;;22.50;99.90;;;;;;4876573;28;90394;-37
2023/07/14 09:47:31;;;;;;;5.63;3.60;;;22.60;99.90;;;;;;4871119;28;89985;-36
2023/07/14 09:49:57;;;;;;;3.67;3.15;;;22.20;99.90;;;;;;4875719;28;89127;-39
2023/07/14 09:52:28;;;;;;;6.18;3.83;;;21.90;99.90;;;;;;4879956;28;89642;-34
2023/07/14 09:54:59;;;;;;;3.72;3.40;;;22.00;99.90;;;;;;4875808;28;90574;-37
2023/07/14 09:57:27;;;;;;;6.93;3.15;;;22.00;99.90;;;;;;4863840;28;89632;-33
2023/07/14 09:59:59;;;;;;;5.22;4.05;;;22.20;99.90;;;;;;4882301;28;89119;-33
2023/07/14 10:02:31;;;;;;;5.18;4.15;;;22.40;99.90;;;;;;4881544;28;88959;-38
2023/07/14 10:05:03;;;;;;;6.50;3.63;;;22.40;99.90;;;;;;4879267;28;91689;-41
2023/07/14 10:07:37;;;;;;;5.63;3.75;;;22.30;99.90;;;;;;4878664;28;91348;-36
2023/07/14 10:10:08;;;;;;;4.10;3.70;;;22.20;99.90;;;;;;4879813;28;90365;-32
2023/07/14 10:12:42;;;;;;;5.75;4.25;;;22.20;99.90;;;;;;4869846;28;88490;-36
2023/07/14 10:15:23;;;;;;;5.68;3.63;;;22.20;99.90;;;;;;4877808;28;90332;-39
2023/07/14 10:17:53;;;;;;;5.65;3.72;;;22.10;99.90;;;;;;4877397;28;90523;-32
2023/07/14 10:20:21;;;;;;;3.67;3.38;;;22.10;99.90;;;;;;4877920;28;90641;-34
2023/07/14 10:22:51;;;;;;;4.35;3.95;;;22.50;99.90;;;;;;4878011;28;90155;-36
2023/07/14 10:25:19;;;;;;;6.05;3.60;;;22.40;99.90;;;;;;4875442;28;91595;-34
2023/07/14 10:28:15;;;;;;;3.30;2.80;;;22.20;99.90;;;;;;4876044;28;90407;-34
2023/07/14 10:31:09;;;;;;;5.40;3.65;;;22.10;99.90;;;;;;4868803;28;89918;-38
2023/07/14 10:34:02;;;;;;;6.07;4.57;;;22.20;99.90;;;;;;4867730;28;89990;-35
2023/07/14 10:36:34;;;;;;;4.13;3.63;;;22.20;99.90;;;;;;4880258;28;90951;-34
2023/07/14 10:39:26;;;;;;;7.90;3.72;;;22.40;99.90;;;;;;4880058;28;90063;-42
2023/07/14 10:41:52;;;;;;;7.72;3.83;;;22.10;99.90;;;;;;4865154;28;90064;-34
2023/07/14 10:44:26;;;;;;;7.22;3.53;;;21.60;99.90;;;;;;4878287;28;89294;-39
2023/07/14 10:46:58;;;;;;;4.45;3.65;;;21.60;99.90;;;;;;4876848;28;90518;-42
2023/07/14 10:49:39;;;;;;;4.32;3.05;;;21.80;99.90;;;;;;4874540;28;89514;-40
2023/07/14 10:52:31;;;;;;;4.53;4.05;;;22.10;99.90;;;;;;4875129;28;90229;-38
2023/07/14 10:55:01;;;;;;;5.03;3.28;;;22.20;99.90;;;;;;4867385;28;88256;-35
2023/07/14 10:57:51;;;;;;;5.43;3.80;;;22.50;99.90;;;;;;4873936;28;90517;-35
2023/07/14 11:00:23;;;;;;;5.53;3.42;;;22.80;99.90;;;;;;4875097;28;90540;-34
2023/07/14 11:03:21;;;;;;;7.95;3.47;;;22.80;99.90;;;;;;4876414;28;90241;-36
2023/07/14 11:06:04;;;;;;;3.80;3.42;;;22.70;99.90;;;;;;4877480;28;88037;-35
2023/07/14 11:08:32;;;;;;;5.13;4.35;;;22.60;99.90;;;;;;4874952;28;90674;-34
2023/07/14 11:11:08;;;;;;;;;;;22.40;99.90;;;;;;4878146;28;89537;-35
2023/07/14 11:14:01;;;;;;;3.75;3.45;;;22.30;99.90;;;;;;4874806;28;89656;-38
2023/07/14 11:16:39;;;;;;;6.00;3.92;;;22.40;99.90;;;;;;4877422;28;89247;-35
2023/07/14 11:19:10;;;;;;;5.50;3.20;;;22.40;99.90;;;;;;4872120;28;91038;-34
2023/07/14 11:21:46;;;;;;;4.03;3.35;;;22.60;99.90;;;;;;4875166;28;88677;-37
2023/07/14 11:24:30;;;;;;;6.68;3.70;;;22.60;99.90;;;;;;4877692;28;90544;-36
2023/07/14 11:27:33;;;;;;;7.63;3.97;;;22.50;99.90;;;;;;4879309;28;90412;-37
2023/07/14 11:30:16;;;;;;;6.72;3.60;;;22.40;99.90;;;;;;4874754;28;91416;-34
2023/07/14 11:33:10;;;;;;;3.63;3.33;;;21.90;99.90;;;;;;4872703;28;89466;-38
2023/07/14 11:35:51;;;;;;;5.78;3.70;;;21.90;99.90;;;;;;4872577;28;90895;-36
2023/07/14 11:38:38;;;;;;;5.20;4.18;;;21.70;99.90;;;;;;4873256;28;89166;-36
2023/07/14 11:41:05;;;;;;;4.30;3.63;;;22.00;99.90;;;;;;4869835;28;90530;-37
2023/07/14 11:43:31;;;;;;;8.88;4.10;;;21.90;99.90;;;;;;4874314;28;90944;-37
2023/07/14 11:46:03;;;;;;;5.47;3.28;;;22.10;99.90;;;;;;4869816;28;89158;-43
2023/07/14 11:48:45;;;;;;;3.28;2.83;;;22.50;99.90;;;;;;4875030;28;89324;-39
2023/07/14 11:51:17;;;;;;;4.22;3.25;;;22.60;99.90;;;;;;4873143;28;90538;-33
2023/07/14 11:54:16;;;;;;;4.00;3.25;;;22.60;99.90;;;;;;4870830;28;90433;-36
2023/07/14 11:56:45;;;;;;;5.65;3.17;;;22.60;99.90;;;;;;4868709;28;90133;-43
2023/07/14 11:59:22;;;;;;;4.53;3.50;;;22.60;99.90;;;;;;4871825;28;90024;-33
2023/07/14 12:01:50;;;;;;;4.55;3.40;;;22.50;99.90;;;;;;4874796;28;90195;-34
2023/07/14 12:04:33;;;;;;;6.53;4.40;;;22.50;99.90;;;;;;4875688;28;90321;-33
2023/07/14 12:07:19;;;;;;;5.57;3.72;;;22.30;99.90;;;;;;4878973;28;89371;-33
2023/07/14 12:10:08;;;;;;;4.20;3.40;;;22.40;99.90;;;;;;4867420;28;89534;-37
2023/07/14 12:12:34;;;;;;;4.93;3.67;;;22.50;99.90;;;;;;4867111;28;90220;-37
2023/07/14 12:15:00;;;;;;;4.43;3.95;;;22.30;99.90;;;;;;4875870;28;90020;-33
2023/07/14 12:17:38;;;;;;;3.50;3.17;;;22.10;99.90;;;;;;4873311;28;89262;-41
2023/07/14 12:20:13;;;;;;;;;;;22.20;99.90;;;;;;4873199;28;90575;-41
2023/07/14 12:22:52;;;;;;;3.40;3.10;;;22.10;99.90;;;;;;4867591;28;89788;-36
2023/07/14 12:25:20;;;;;;;3.75;3.38;;;22.40;99.90;;;;;;4865218;28;91719;-34
2023/07/14 12:27:53;;;;;;;6.15;3.50;;;22.60;99.90;;;;;;4875075;28;90146;-35
2023/07/14 12:30:28;;;;;;;6.20;4.13;;;22.70;99.90;;;;;;4879274;28;88396;-41
2023/07/14 12:33:03;;;;;;;10.35;3.28;;;22.70;99.90;;;;;;4878463;28;90221;-32
2023/07/14 12:35:32;;;;;;;3.80;3.38;;;22.80;99.90;;;;;;4863481;28;88635;-37
2023/07/14 12:38:17;;;;;;;3.88;3.58;;;22.90;99.90;;;;;;4861978;28;89965;-34
2023/07/14 12:40:44;;;;;;;6.18;3.60;;;22.80;97.60;;;;;;4872101;28;87700;-35
2023/07/14 12:43:26;;;;;;;4.95;2.75;;;22.60;99.90;;;;;;4870742;28;91124;-34
2023/07/14 12:45:56;;;;;;;4.13;3.05;;;22.60;99.90;;;;;;4872622;28;90666;-35
2023/07/14 12:48:31;;;;;;;6.00;3.33;;;22.70;99.90;;;;;;4878751;28;92644;-37
2023/07/14 12:50:59;;;;;;;4.72;2.92;;;22.60;99.70;;;;;;4878323;28;88748;-33
2023/07/14 12:53:31;;;;;;;7.22;3.60;;;22.60;99.90;;;;;;4876265;28;90174;-38
2023/07/14 12:56:04;;;;;;;4.63;3.40;;;22.60;99.90;;;;;;4875226;28;89723;-38